createdAt,value
2019-01-05T00:01:22.232Z,4.20
2019-01-05T00:03:56.205Z,4.10
2019-01-05T00:06:39.505Z,4.20
2019-01-05T00:09:13.705Z,4.10
2019-01-05T00:11:48.178Z,4.20
2019-01-05T00:15:30.476Z,4.10
2019-01-05T00:18:04.876Z,4.10
2019-01-05T00:20:44.769Z,4.00
2019-01-05T00:23:33.394Z,3.90
2019-01-05T00:26:07.001Z,4.00
2019-01-05T00:30:42.244Z,3.90
2019-01-05T00:33:16.253Z,3.90
2019-01-05T00:36:13.402Z,3.90
2019-01-05T00:38:50.180Z,4.00
2019-01-05T00:41:23.756Z,3.90
2019-01-05T00:44:00.668Z,3.90
2019-01-05T00:46:34.264Z,3.90
2019-01-05T00:49:08.202Z,3.90
2019-01-05T00:53:44.336Z,3.90
2019-01-05T00:56:17.927Z,3.80
2019-01-05T00:58:51.604Z,3.80
2019-01-05T01:03:29.149Z,3.70
2019-01-05T01:06:05.705Z,3.70
2019-01-05T01:08:39.688Z,3.50
2019-01-05T01:11:22.155Z,3.50
2019-01-05T01:13:57.962Z,3.50
2019-01-05T01:16:31.732Z,3.40
2019-01-05T01:21:12.316Z,3.40
2019-01-05T01:24:06.340Z,3.40
2019-01-05T01:26:45.895Z,3.40
2019-01-05T01:29:50.562Z,3.40
2019-01-05T01:32:28.295Z,3.40
2019-01-05T01:35:31.738Z,3.30
2019-01-05T01:39:46.861Z,3.20
2019-01-05T01:42:22.042Z,3.20
2019-01-05T01:47:01.202Z,3.00
2019-01-05T01:49:35.683Z,3.00
2019-01-05T01:52:09.777Z,2.90
2019-01-05T01:54:53.155Z,2.80
2019-01-05T01:59:30.936Z,2.70
2019-01-05T02:02:10.583Z,2.60
2019-01-05T02:04:44.455Z,2.60
2019-01-05T02:07:17.265Z,2.50
2019-01-05T02:11:56.673Z,2.40
2019-01-05T02:14:36.040Z,2.40
2019-01-05T02:17:13.131Z,2.30
2019-01-05T02:20:00.968Z,2.30
2019-01-05T02:22:48.598Z,2.20
2019-01-05T02:25:51.042Z,2.20
2019-01-05T02:29:46.111Z,2.10
2019-01-05T02:32:34.311Z,2.10
2019-01-05T02:35:23.592Z,1.90
2019-01-05T02:38:15.670Z,1.90
2019-01-05T02:41:12.159Z,1.70
2019-01-05T02:45:05.021Z,1.70
2019-01-05T02:49:13.141Z,1.70
2019-01-05T02:53:07.632Z,1.60
2019-01-05T02:58:57.368Z,1.70
2019-01-05T03:03:57.439Z,1.70
2019-01-05T03:07:02.800Z,1.80
2019-01-05T03:10:22.581Z,1.70
2019-01-05T03:13:07.550Z,1.70
2019-01-05T03:16:29.710Z,1.70
2019-01-05T03:19:34.339Z,1.80
2019-01-05T03:24:26.837Z,1.80
2019-01-05T03:29:14.002Z,1.80
2019-01-05T03:31:58.647Z,1.90
2019-01-05T03:36:45.592Z,1.90
2019-01-05T03:39:43.177Z,2.00
2019-01-05T03:44:35.556Z,2.00
2019-01-05T03:47:19.409Z,2.10
2019-01-05T03:52:12.166Z,2.10
2019-01-05T03:57:03.265Z,2.10
2019-01-05T03:59:55.313Z,2.20
2019-01-05T04:02:48.463Z,2.20
2019-01-05T04:07:45.990Z,2.20
2019-01-05T04:14:40.853Z,2.20
2019-01-05T04:17:24.746Z,2.20
2019-01-05T04:20:10.335Z,2.10
2019-01-05T04:25:58.389Z,2.00
2019-01-05T04:28:43.048Z,2.00
2019-01-05T04:31:29.763Z,1.90
2019-01-05T04:34:16.140Z,1.90
2019-01-05T04:40:09.798Z,1.90
2019-01-05T04:45:08.740Z,1.80
2019-01-05T04:47:59.347Z,1.80
2019-01-05T04:50:52.299Z,1.70
2019-01-05T04:55:48.324Z,1.60
2019-01-05T04:58:37.551Z,1.60
2019-01-05T05:01:23.028Z,1.60
2019-01-05T05:04:07.925Z,1.60
2019-01-05T05:06:55.778Z,1.60
2019-01-05T05:10:47.714Z,1.50
2019-01-05T05:13:36.429Z,1.50
2019-01-05T05:16:51.607Z,1.40
2019-01-05T05:19:44.063Z,1.40
2019-01-05T05:26:39.960Z,1.40
2019-01-05T05:29:32.748Z,1.40
2019-01-05T05:33:25.748Z,1.30
2019-01-05T05:36:42.128Z,1.20
2019-01-05T05:39:30.643Z,1.20
2019-01-05T05:44:31.716Z,1.20
2019-01-05T05:47:31.708Z,1.20
2019-01-05T05:50:22.270Z,1.30
2019-01-05T05:53:14.043Z,1.30
2019-01-05T05:55:58.756Z,1.30
2019-01-05T06:00:46.976Z,1.30
2019-01-05T06:03:40.565Z,1.30
2019-01-05T06:06:31.207Z,1.20
2019-01-05T06:09:17.780Z,1.20
2019-01-05T06:14:12.903Z,1.10
2019-01-05T06:17:02.088Z,1.20
2019-01-05T06:19:49.171Z,1.20
2019-01-05T06:24:37.132Z,1.20
2019-01-05T06:29:30.488Z,1.20
2019-01-05T06:32:17.787Z,1.20
2019-01-05T06:35:02.320Z,1.20
2019-01-05T06:38:11.216Z,1.10
2019-01-05T06:46:12.759Z,1.20
2019-01-05T06:50:02.381Z,1.10
2019-01-05T06:56:56.109Z,1.10
2019-01-05T07:03:46.030Z,1.10
2019-01-05T07:07:31.164Z,1.10
2019-01-05T07:10:18.899Z,1.10
2019-01-05T07:13:23.353Z,1.10
2019-01-05T07:16:41.051Z,1.00
2019-01-05T07:19:50.283Z,1.00
2019-01-05T07:24:45.717Z,0.90
2019-01-05T07:27:31.089Z,1.00
2019-01-05T07:30:15.990Z,1.00
2019-01-05T07:33:02.593Z,1.00
2019-01-05T07:35:46.905Z,1.00
2019-01-05T07:41:07.316Z,1.00
2019-01-05T07:45:57.409Z,0.90
2019-01-05T07:54:49.920Z,0.90
2019-01-05T08:01:02.338Z,0.90
2019-01-05T08:03:57.116Z,1.00
2019-01-05T08:06:50.074Z,1.00
2019-01-05T08:11:40.376Z,1.00
2019-01-05T08:14:42.466Z,0.90
2019-01-05T08:20:00.650Z,0.90
2019-01-05T08:23:03.009Z,0.90
2019-01-05T08:25:59.774Z,0.90
2019-01-05T08:29:25.322Z,0.90
2019-01-05T08:32:11.071Z,0.90
2019-01-05T08:35:26.461Z,0.90
2019-01-05T08:40:12.370Z,0.80
2019-01-05T08:46:09.371Z,0.80
2019-01-05T08:49:02.699Z,0.80
2019-01-05T08:52:09.853Z,0.80
2019-01-05T08:55:05.041Z,0.90
2019-01-05T09:01:06.345Z,0.90
2019-01-05T09:06:00.757Z,0.90
2019-01-05T09:08:48.728Z,1.00
2019-01-05T09:11:32.042Z,1.00
2019-01-05T09:14:21.431Z,1.20
2019-01-05T09:17:28.465Z,1.60
2019-01-05T09:22:24.039Z,1.90
2019-01-05T09:25:33.229Z,2.50
2019-01-05T09:28:41.774Z,3.60
2019-01-05T09:31:26.820Z,4.00
2019-01-05T09:36:17.956Z,4.00
2019-01-05T09:39:17.344Z,3.70
2019-01-05T09:42:21.199Z,4.20
2019-01-05T09:47:09.960Z,4.50
2019-01-05T09:49:54.880Z,4.20
2019-01-05T09:53:49.940Z,4.20
2019-01-05T09:56:42.582Z,3.50
2019-01-05T09:59:34.764Z,3.80
2019-01-05T10:05:01.475Z,4.80
2019-01-05T10:08:56.320Z,4.80
2019-01-05T10:13:44.857Z,5.90
2019-01-05T10:17:43.282Z,4.20
2019-01-05T10:22:31.327Z,2.70
2019-01-05T10:27:17.716Z,2.10
2019-01-05T10:30:26.425Z,1.90
2019-01-05T10:33:41.619Z,1.90
2019-01-05T10:37:41.715Z,1.80
2019-01-05T10:40:54.019Z,1.90
2019-01-05T10:44:43.660Z,1.90
2019-01-05T10:47:28.201Z,1.90
2019-01-05T10:50:16.215Z,1.90
2019-01-05T10:55:12.044Z,1.90
2019-01-05T10:58:57.626Z,1.90
2019-01-05T11:03:43.830Z,1.90
2019-01-05T11:08:41.008Z,1.90
2019-01-05T11:13:45.327Z,1.90
2019-01-05T11:18:32.295Z,1.90
2019-01-05T11:21:22.309Z,1.90
2019-01-05T11:24:06.186Z,1.90
2019-01-05T11:26:53.777Z,1.90
2019-01-05T11:30:00.945Z,1.90
2019-01-05T11:32:58.863Z,1.90
2019-01-05T11:35:52.013Z,1.90
2019-01-05T11:40:43.417Z,1.90
2019-01-05T11:46:06.539Z,1.90
2019-01-05T11:49:13.777Z,1.90
2019-01-05T11:52:02.724Z,1.80
2019-01-05T11:55:20.107Z,1.80
2019-01-05T11:58:16.442Z,1.80
2019-01-05T12:01:04.591Z,1.90
2019-01-05T12:05:55.710Z,1.90
2019-01-05T12:10:47.807Z,1.90
2019-01-05T12:15:38.604Z,1.80
2019-01-05T12:20:27.576Z,1.90
2019-01-05T12:24:54.181Z,1.90
2019-01-05T12:27:42.265Z,1.80
2019-01-05T12:31:32.637Z,1.80
2019-01-05T12:34:17.596Z,1.80
2019-01-05T12:38:05.220Z,1.80
2019-01-05T12:41:08.792Z,1.80
2019-01-05T12:44:23.224Z,1.70
2019-01-05T12:49:14.494Z,1.70
2019-01-05T12:52:34.285Z,1.70
2019-01-05T12:56:16.394Z,1.70
2019-01-05T12:59:35.721Z,1.70
2019-01-05T13:02:20.214Z,1.70
2019-01-05T13:08:18.650Z,1.70
2019-01-05T13:11:08.097Z,1.70
2019-01-05T13:13:51.010Z,1.60
2019-01-05T13:17:44.729Z,1.60
2019-01-05T13:20:33.134Z,1.60
2019-01-05T13:23:21.482Z,1.60
2019-01-05T13:26:18.124Z,1.50
2019-01-05T13:29:16.698Z,1.50
2019-01-05T13:32:04.646Z,1.40
2019-01-05T13:34:57.558Z,1.40
2019-01-05T13:38:22.496Z,1.40
2019-01-05T13:41:08.324Z,1.30
2019-01-05T13:43:57.488Z,1.30
2019-01-05T13:47:16.147Z,1.30
2019-01-05T13:50:02.161Z,1.20
2019-01-05T13:55:04.743Z,1.20
2019-01-05T13:57:38.305Z,1.10
2019-01-05T14:00:14.243Z,1.00
2019-01-05T14:02:50.871Z,1.00
2019-01-05T14:05:57.851Z,1.00
2019-01-05T14:10:37.242Z,0.90
2019-01-05T14:13:13.949Z,0.90
2019-01-05T14:17:51.162Z,0.80
2019-01-05T14:22:26.565Z,0.80
2019-01-05T14:25:02.024Z,0.70
2019-01-05T14:27:40.638Z,0.60
2019-01-05T14:32:15.809Z,0.60
2019-01-05T14:35:47.646Z,0.50
2019-01-05T14:38:25.337Z,0.40
2019-01-05T14:41:30.272Z,0.40
2019-01-05T14:44:04.099Z,0.30
2019-01-05T14:46:38.393Z,0.30
2019-01-05T14:49:12.194Z,0.20
2019-01-05T14:53:48.810Z,0.30
2019-01-05T14:56:21.410Z,0.30
2019-01-05T14:58:57.516Z,0.50
2019-01-05T15:01:31.281Z,0.50
2019-01-05T15:04:05.637Z,0.50
2019-01-05T15:06:46.198Z,0.50
2019-01-05T15:09:29.886Z,0.50
2019-01-05T15:12:03.642Z,0.50
2019-01-05T15:15:39.625Z,0.50
2019-01-05T15:18:13.536Z,0.60
2019-01-05T15:20:52.187Z,0.50
2019-01-05T15:23:56.873Z,0.50
2019-01-05T15:28:35.282Z,0.40
2019-01-05T15:31:09.100Z,0.40
2019-01-05T15:34:49.451Z,0.30
2019-01-05T15:37:23.974Z,0.30
2019-01-05T15:40:05.869Z,0.30
2019-01-05T15:42:39.531Z,0.30
2019-01-05T15:45:19.215Z,0.20
2019-01-05T15:49:56.348Z,0.20
2019-01-05T15:52:35.819Z,0.20
2019-01-05T15:57:11.609Z,0.10
2019-01-05T15:59:47.667Z,0.10
2019-01-05T16:02:22.194Z,0.00
2019-01-05T16:04:55.858Z,0.00
2019-01-05T16:07:30.270Z,0.00
2019-01-05T16:12:05.874Z,0.00
2019-01-05T16:14:43.481Z,0.00
2019-01-05T16:17:22.045Z,0.00
2019-01-05T16:20:00.484Z,-0.10
2019-01-05T16:24:35.733Z,-0.10
2019-01-05T16:28:09.519Z,-0.10
2019-01-05T16:30:43.156Z,-0.10
2019-01-05T16:33:20.749Z,-0.10
2019-01-05T16:38:00.955Z,0.00
2019-01-05T16:40:34.676Z,0.00
2019-01-05T16:43:16.715Z,0.10
2019-01-05T16:45:50.198Z,0.10
2019-01-05T16:48:24.120Z,0.30
2019-01-05T16:50:58.929Z,0.30
2019-01-05T16:53:31.293Z,0.40
2019-01-05T16:56:05.062Z,0.40
2019-01-05T16:58:56.731Z,0.40
2019-01-05T17:01:30.447Z,0.50
2019-01-05T17:04:04.562Z,0.50
2019-01-05T17:08:45.133Z,0.50
2019-01-05T17:11:34.680Z,0.50
2019-01-05T17:14:08.518Z,0.50
2019-01-05T17:16:42.425Z,0.60
2019-01-05T17:19:16.958Z,0.60
2019-01-05T17:21:54.699Z,0.60
2019-01-05T17:24:30.263Z,0.60
2019-01-05T17:27:04.347Z,0.60
2019-01-05T17:29:41.795Z,0.60
2019-01-05T17:32:18.430Z,0.60
2019-01-05T17:34:56.055Z,0.60
2019-01-05T17:37:59.795Z,0.60
2019-01-05T17:40:33.361Z,0.60
2019-01-05T17:43:23.040Z,0.60
2019-01-05T17:45:56.753Z,0.60
2019-01-05T17:50:38.260Z,0.60
2019-01-05T17:53:11.911Z,0.60
2019-01-05T17:56:17.709Z,0.60
2019-01-05T18:00:55.818Z,0.60
2019-01-05T18:05:36.354Z,0.60
2019-01-05T18:09:10.397Z,0.60
2019-01-05T18:12:50.257Z,0.60
2019-01-05T18:15:23.913Z,0.50
2019-01-05T18:17:57.508Z,0.50
2019-01-05T18:20:34.127Z,0.60
2019-01-05T18:25:09.543Z,0.50
2019-01-05T18:27:44.211Z,0.50
2019-01-05T18:30:53.076Z,0.40
2019-01-05T18:33:28.606Z,0.40
2019-01-05T18:36:13.426Z,0.40
2019-01-05T18:38:47.147Z,0.40
2019-01-05T18:41:20.950Z,0.40
2019-01-05T18:43:57.438Z,0.40
2019-01-05T18:46:32.239Z,0.40
2019-01-05T18:49:08.628Z,0.40
2019-01-05T18:51:45.594Z,0.50
2019-01-05T18:54:19.253Z,0.50
2019-01-05T18:57:23.939Z,0.50
2019-01-05T18:59:59.547Z,0.50
2019-01-05T19:02:34.050Z,0.60
2019-01-05T19:07:15.177Z,0.70
2019-01-05T19:11:52.831Z,0.60
2019-01-05T19:14:26.379Z,0.60
2019-01-05T19:17:03.942Z,0.60
2019-01-05T19:21:39.231Z,0.70
2019-01-05T19:26:17.656Z,0.70
2019-01-05T19:28:51.587Z,0.70
2019-01-05T19:31:25.626Z,0.70
2019-01-05T19:35:06.653Z,0.70
2019-01-05T19:38:00.529Z,0.70
2019-01-05T19:40:34.319Z,0.70
2019-01-05T19:45:12.146Z,0.70
2019-01-05T19:48:51.134Z,0.70
2019-01-05T19:51:24.672Z,0.70
2019-01-05T19:54:00.219Z,0.60
2019-01-05T19:58:36.709Z,0.50
2019-01-05T20:03:15.945Z,0.60
2019-01-05T20:05:54.731Z,0.60
2019-01-05T20:08:45.216Z,0.60
2019-01-05T20:13:22.663Z,0.60
2019-01-05T20:17:57.917Z,0.60
2019-01-05T20:22:34.396Z,0.60
2019-01-05T20:25:08.026Z,0.50
2019-01-05T20:27:42.211Z,0.50
2019-01-05T20:30:15.827Z,0.50
2019-01-05T20:34:54.298Z,0.50
2019-01-05T20:37:27.120Z,0.50
2019-01-05T20:42:06.670Z,0.40
2019-01-05T20:46:42.832Z,0.50
2019-01-05T20:49:16.904Z,0.40
2019-01-05T20:51:50.658Z,0.40
2019-01-05T20:55:28.585Z,0.40
2019-01-05T20:58:02.079Z,0.40
2019-01-05T21:00:36.583Z,0.30
2019-01-05T21:03:11.106Z,0.40
2019-01-05T21:05:44.830Z,0.30
2019-01-05T21:09:20.975Z,0.30
2019-01-05T21:11:56.509Z,0.30
2019-01-05T21:14:30.206Z,0.30
2019-01-05T21:17:35.975Z,0.30
2019-01-05T21:20:09.718Z,0.30
2019-01-05T21:24:46.130Z,0.30
2019-01-05T21:27:33.746Z,0.40
2019-01-05T21:30:21.570Z,0.30
2019-01-05T21:32:55.931Z,0.30
2019-01-05T21:35:29.749Z,0.40
2019-01-05T21:38:02.322Z,0.50
2019-01-05T21:40:36.123Z,0.50
2019-01-05T21:43:11.565Z,0.50
2019-01-05T21:45:45.169Z,0.40
2019-01-05T21:48:18.865Z,0.40
2019-01-05T21:50:52.674Z,0.40
2019-01-05T21:53:35.206Z,0.40
2019-01-05T21:56:09.835Z,0.30
2019-01-05T22:01:08.577Z,0.30
2019-01-05T22:03:42.452Z,0.30
2019-01-05T22:06:21.153Z,0.40
2019-01-05T22:09:58.182Z,0.40
2019-01-05T22:12:40.216Z,0.40
2019-01-05T22:15:13.810Z,0.30
2019-01-05T22:18:02.211Z,0.30
2019-01-05T22:20:36.276Z,0.30
2019-01-05T22:23:11.830Z,0.30
2019-01-05T22:25:45.738Z,0.30
2019-01-05T22:28:27.746Z,0.30
2019-01-05T22:31:29.996Z,0.40
2019-01-05T22:34:03.622Z,0.50
2019-01-05T22:36:39.349Z,0.60
2019-01-05T22:39:12.947Z,0.50
2019-01-05T22:41:46.856Z,0.40
2019-01-05T22:44:40.801Z,0.30
2019-01-05T22:47:19.512Z,0.40
2019-01-05T22:49:52.904Z,0.30
2019-01-05T22:52:26.660Z,0.30
2019-01-05T22:55:15.201Z,0.20
2019-01-05T22:57:55.008Z,0.10
2019-01-05T23:00:28.751Z,0.10
2019-01-05T23:03:02.472Z,0.20
2019-01-05T23:05:39.022Z,0.10
2019-01-05T23:08:13.235Z,0.10
2019-01-05T23:11:22.375Z,0.10
2019-01-05T23:13:55.459Z,0.10
2019-01-05T23:16:28.920Z,0.10
2019-01-05T23:19:01.902Z,0.10
2019-01-05T23:21:35.517Z,0.00
2019-01-05T23:24:10.280Z,0.00
2019-01-05T23:26:49.810Z,0.00
2019-01-05T23:29:23.819Z,0.00
2019-01-05T23:31:57.324Z,0.00
2019-01-05T23:34:35.316Z,-0.10
2019-01-05T23:37:08.895Z,-0.10
2019-01-05T23:41:45.315Z,-0.20
2019-01-05T23:44:35.704Z,-0.20
2019-01-05T23:47:08.875Z,-0.10
2019-01-05T23:51:48.984Z,-0.20
2019-01-05T23:54:26.531Z,-0.30
2019-01-05T23:57:00.162Z,-0.30
2019-01-05T23:59:33.801Z,-0.30
